createdAt,value
2023-02-12T00:04:03.908Z,99086.81
2023-02-12T00:07:53.017Z,99088.09
2023-02-12T00:11:48.614Z,99093.21
2023-02-12T00:31:25.447Z,99100.55
2023-02-12T00:35:13.499Z,99101.40
2023-02-12T00:39:00.987Z,99101.69
2023-02-12T00:42:49.385Z,99104.58
2023-02-12T00:46:37.472Z,99110.41
2023-02-12T00:50:25.371Z,99117.02
2023-02-12T00:54:02.742Z,99112.48
2023-02-12T00:57:51.446Z,99113.17
2023-02-12T01:01:39.916Z,99112.36
2023-02-12T01:05:28.314Z,99113.66
2023-02-12T01:09:16.784Z,99107.92
2023-02-12T01:13:04.368Z,99106.80
2023-02-12T01:17:03.070Z,99111.30
2023-02-12T01:20:52.409Z,99109.90
2023-02-12T01:25:29.506Z,99118.77
2023-02-12T01:29:20.493Z,99119.46
2023-02-12T01:33:08.025Z,99122.50
2023-02-12T01:36:55.472Z,99121.39
2023-02-12T01:52:35.118Z,99134.45
2023-02-12T01:56:23.982Z,99140.91
2023-02-12T02:00:09.531Z,99148.84
2023-02-12T02:03:58.683Z,99144.73
2023-02-12T02:07:53.701Z,99144.62
2023-02-12T02:11:41.751Z,99154.77
2023-02-12T02:15:31.116Z,99152.41
2023-02-12T02:31:42.991Z,99178.73
2023-02-12T02:35:46.146Z,99185.04
2023-02-12T02:39:37.526Z,99179.11
2023-02-12T02:51:25.714Z,99185.23
2023-02-12T02:55:14.812Z,99194.43
2023-02-12T02:59:06.743Z,99201.15
2023-02-12T03:03:10.972Z,99208.11
2023-02-12T03:15:14.765Z,99213.95
2023-02-12T03:19:06.867Z,99221.98
2023-02-12T03:23:08.008Z,99225.24
2023-02-12T03:34:58.794Z,99230.02
2023-02-12T03:38:51.068Z,99250.23
2023-02-12T03:42:43.062Z,99252.60
2023-02-12T03:54:37.438Z,99269.95
2023-02-12T03:58:26.460Z,99289.98
2023-02-12T04:02:15.829Z,99290.04
2023-02-12T04:06:05.097Z,99294.23
2023-02-12T04:09:54.066Z,99298.36
2023-02-12T04:14:01.498Z,99301.73
2023-02-12T04:18:00.923Z,99310.19
2023-02-12T04:30:03.159Z,99326.25
2023-02-12T04:33:52.504Z,99324.55
2023-02-12T04:37:50.712Z,99329.98
2023-02-12T05:00:56.943Z,99353.23
2023-02-12T05:04:46.378Z,99356.41
2023-02-12T05:08:35.279Z,99364.02
2023-02-12T05:12:24.630Z,99374.15
2023-02-12T05:16:13.477Z,99382.14
2023-02-12T05:20:02.410Z,99384.71
2023-02-12T05:23:51.889Z,99393.25
2023-02-12T05:27:41.039Z,99401.61
2023-02-12T05:31:30.950Z,99413.80
2023-02-12T05:35:20.880Z,99415.59
2023-02-12T05:39:09.953Z,99416.50
2023-02-12T05:42:59.035Z,99419.94
2023-02-12T05:46:48.453Z,99421.37
2023-02-12T05:50:37.662Z,99424.94
2023-02-12T05:54:26.702Z,99435.23
2023-02-12T05:58:16.200Z,99442.98
2023-02-12T06:02:14.460Z,99444.64
2023-02-12T06:06:03.733Z,99447.43
2023-02-12T06:09:52.782Z,99446.91
2023-02-12T06:13:42.859Z,99460.97
2023-02-12T06:17:34.197Z,99468.11
2023-02-12T06:21:01.837Z,99469.64
2023-02-12T06:40:24.406Z,99493.17
2023-02-12T07:03:42.690Z,99514.77
2023-02-12T07:07:19.419Z,99524.06
2023-02-12T07:10:59.677Z,99531.05
2023-02-12T07:14:47.497Z,99534.63
2023-02-12T07:18:35.441Z,99535.13
2023-02-12T07:22:24.136Z,99541.21
2023-02-12T07:25:54.501Z,99537.73
2023-02-12T07:29:50.196Z,99542.98
2023-02-12T07:41:05.461Z,99553.20
2023-02-12T07:44:34.362Z,99556.37
2023-02-12T07:55:14.027Z,99570.61
2023-02-12T07:59:02.666Z,99574.19
2023-02-12T08:02:38.121Z,99582.31
2023-02-12T08:22:06.407Z,99583.09
2023-02-12T08:25:36.890Z,99584.77
2023-02-12T08:29:14.580Z,99591.35
2023-02-12T08:33:04.029Z,99597.20
2023-02-12T08:36:52.985Z,99601.61
2023-02-12T08:44:22.048Z,99615.69
2023-02-12T08:48:12.949Z,99619.52
2023-02-12T08:52:09.929Z,99623.09
2023-02-12T09:18:08.514Z,99644.75
2023-02-12T09:52:30.290Z,99693.05
2023-02-12T09:56:19.267Z,99696.10
2023-02-12T09:59:57.033Z,99703.80
2023-02-12T10:03:28.101Z,99711.09
2023-02-12T10:06:50.278Z,99714.19
2023-02-12T10:10:40.889Z,99721.19
2023-02-12T10:14:51.406Z,99725.13
2023-02-12T10:30:37.771Z,99736.88
2023-02-12T10:34:34.540Z,99728.84
2023-02-12T10:38:07.442Z,99726.38
2023-02-12T10:41:47.829Z,99725.98
2023-02-12T10:45:32.987Z,99729.30
2023-02-12T10:49:21.799Z,99728.66
2023-02-12T11:01:32.468Z,99727.22
2023-02-12T11:05:24.368Z,99726.15
2023-02-12T11:09:11.806Z,99734.23
2023-02-12T11:21:20.524Z,99739.48
2023-02-12T11:25:12.420Z,99739.08
2023-02-12T11:29:02.341Z,99741.61
2023-02-12T11:37:25.116Z,99745.20
2023-02-12T11:41:06.496Z,99749.30
2023-02-12T11:44:42.963Z,99748.69
2023-02-12T11:48:31.549Z,99754.46
2023-02-12T12:00:34.533Z,99749.40
2023-02-12T12:04:20.315Z,99745.27
2023-02-12T12:08:06.963Z,99747.45
2023-02-12T12:11:27.226Z,99750.56
2023-02-12T12:15:11.280Z,99749.61
2023-02-12T12:18:54.308Z,99745.23
2023-02-12T12:22:44.624Z,99739.30
2023-02-12T12:26:26.313Z,99738.85
2023-02-12T12:30:15.198Z,99734.11
2023-02-12T12:33:54.934Z,99739.86
2023-02-12T12:37:43.485Z,99737.50
2023-02-12T12:41:43.369Z,99732.50
2023-02-12T12:57:52.918Z,99721.20
2023-02-12T13:01:46.830Z,99735.34
2023-02-12T13:05:48.663Z,99733.93
2023-02-12T13:09:36.606Z,99735.48
2023-02-12T13:13:10.603Z,99740.05
2023-02-12T13:24:59.891Z,99746.65
2023-02-12T13:28:48.872Z,99749.17
2023-02-12T13:32:19.024Z,99753.79
2023-02-12T13:36:08.643Z,99759.36
2023-02-12T13:39:45.905Z,99759.39
2023-02-12T13:43:50.694Z,99761.39
2023-02-12T13:58:41.761Z,99750.19
2023-02-12T14:02:36.653Z,99749.50
2023-02-12T14:10:15.630Z,99748.67
2023-02-12T14:14:14.209Z,99746.70
2023-02-12T14:17:30.416Z,99752.69
2023-02-12T14:29:54.444Z,99754.83
2023-02-12T14:33:30.823Z,99750.06
2023-02-12T14:36:54.081Z,99757.09
2023-02-12T14:40:22.904Z,99752.02
2023-02-12T14:44:00.116Z,99760.13
2023-02-12T14:47:55.423Z,99760.61
2023-02-12T14:51:00.863Z,99758.59
2023-02-12T14:55:02.346Z,99758.22
2023-02-12T14:59:21.016Z,99759.69
2023-02-12T15:03:02.647Z,99756.71
2023-02-12T15:06:07.744Z,99757.21
2023-02-12T15:09:23.419Z,99759.08
2023-02-12T15:13:12.770Z,99762.56
2023-02-12T15:20:45.418Z,99769.63
2023-02-12T16:12:29.814Z,99789.59
2023-02-12T16:16:43.592Z,99795.91
2023-02-12T16:20:35.495Z,99802.71
2023-02-12T16:24:17.448Z,99807.41
2023-02-12T16:39:40.590Z,99806.40
2023-02-12T16:43:29.812Z,99811.48
2023-02-12T16:59:05.550Z,99816.17
2023-02-12T17:03:03.583Z,99815.73
2023-02-12T17:06:52.696Z,99818.86
2023-02-12T17:10:41.804Z,99808.20
2023-02-12T17:14:31.242Z,99801.80
2023-02-12T17:18:20.496Z,99804.41
2023-02-12T17:22:09.485Z,99802.69
2023-02-12T17:25:59.594Z,99805.70
2023-02-12T17:29:28.913Z,99811.75
2023-02-12T17:33:17.967Z,99810.37
2023-02-12T17:37:08.989Z,99806.92
2023-02-12T17:40:39.149Z,99808.21
2023-02-12T17:44:28.264Z,99809.67
2023-02-12T17:48:18.351Z,99815.28
2023-02-12T17:52:07.548Z,99816.24
2023-02-12T18:11:34.108Z,99805.86
2023-02-12T18:15:23.280Z,99814.02
2023-02-12T18:19:12.228Z,99809.40
2023-02-12T18:23:02.499Z,99805.77
2023-02-12T18:26:52.187Z,99801.30
2023-02-12T18:30:41.797Z,99801.80
2023-02-12T18:34:31.632Z,99803.44
2023-02-12T18:38:21.831Z,99803.30
2023-02-12T18:42:03.797Z,99804.98
2023-02-12T18:45:53.676Z,99800.70
2023-02-12T18:49:38.987Z,99810.92
2023-02-12T18:57:26.503Z,99813.00
2023-02-12T19:01:16.670Z,99805.17
2023-02-12T19:05:09.957Z,99804.98
2023-02-12T19:09:00.491Z,99794.05
2023-02-12T19:12:50.441Z,99795.16
2023-02-12T19:16:40.804Z,99798.15
2023-02-12T19:20:30.666Z,99793.34
2023-02-12T19:24:19.880Z,99793.14
2023-02-12T19:28:10.327Z,99789.59
2023-02-12T19:31:53.401Z,99786.42
2023-02-12T19:51:20.320Z,99791.23
2023-02-12T19:55:08.067Z,99791.73
2023-02-12T19:58:55.956Z,99787.82
2023-02-12T20:02:44.075Z,99794.22
2023-02-12T20:06:41.461Z,99791.97
2023-02-12T20:10:32.050Z,99793.91
2023-02-12T20:26:10.467Z,99792.80
2023-02-12T20:29:59.719Z,99794.10
2023-02-12T20:33:49.416Z,99795.02
2023-02-12T20:37:39.869Z,99797.58
2023-02-12T20:41:30.144Z,99794.38
2023-02-12T20:45:21.175Z,99800.79
2023-02-12T20:49:12.600Z,99800.65
2023-02-12T20:53:02.397Z,99802.83
2023-02-12T21:08:33.834Z,99811.70
2023-02-12T21:12:23.077Z,99813.91
2023-02-12T21:16:02.274Z,99812.05
2023-02-12T21:19:51.567Z,99812.58
2023-02-12T21:23:40.864Z,99817.32
2023-02-12T21:27:30.021Z,99815.02
2023-02-12T21:31:19.261Z,99815.34
2023-02-12T21:35:08.942Z,99809.06
2023-02-12T21:38:52.315Z,99807.76
2023-02-12T21:42:40.188Z,99811.41
2023-02-12T21:50:17.007Z,99813.45
2023-02-12T21:54:07.024Z,99815.23
2023-02-12T22:13:38.480Z,99821.30
2023-02-12T22:17:27.677Z,99821.11
2023-02-12T22:21:16.862Z,99819.09
2023-02-12T22:25:06.373Z,99825.15
2023-02-12T22:28:55.398Z,99824.33
2023-02-12T22:32:48.222Z,99820.58
2023-02-12T22:36:42.119Z,99826.17
2023-02-12T22:40:32.145Z,99826.90
2023-02-12T22:44:23.084Z,99824.48
2023-02-12T22:48:14.138Z,99829.48
2023-02-12T22:52:19.417Z,99831.95
2023-02-12T23:23:14.715Z,99824.91
2023-02-12T23:27:02.601Z,99821.09
2023-02-12T23:30:50.367Z,99819.80
2023-02-12T23:34:38.512Z,99824.52
2023-02-12T23:38:26.414Z,99818.23
2023-02-12T23:42:14.315Z,99811.85
2023-02-12T23:46:02.884Z,99810.23
2023-02-12T23:49:50.800Z,99807.09
2023-02-12T23:53:38.370Z,99805.02
2023-02-12T23:57:27.092Z,99804.38
